Time;durP1;ratioP1;P1;durP2;ratioP2;P2;SDS_P1;SDS_P2;PMS_P1;PMS_P2;Temp;Humidity;BMP_temperature;BMP_pressure;BME280_temperature;BME280_humidity;BME280_pressure;Samples;Min_cycle;Max_cycle;Signal;HPM_P1;HPM_P2
2021/04/07 00:00:47;;;;;;;17.90;10.30;;;;;;;-4.24;72.51;98271.59;471713;1170;114082;-67
2021/04/07 00:10:51;;;;;;;13.63;8.73;;;;;;;-4.32;72.87;98275.23;470986;1169;114167;-66
2021/04/07 00:20:54;;;;;;;14.30;8.90;;;;;;;-4.38;73.00;98273.66;471635;1168;114117;-67
2021/04/07 00:30:58;;;;;;;17.93;11.00;;;;;;;-4.47;73.73;98273.88;471618;1169;114481;-66
2021/04/07 00:41:02;;;;;;;18.90;12.23;;;;;;;-4.62;74.02;98268.25;471637;1170;114843;-65
2021/04/07 00:51:06;;;;;;;19.07;13.17;;;;;;;-4.67;74.33;98273.48;471487;1168;114382;-66
2021/04/07 01:01:11;;;;;;;17.63;10.17;;;;;;;-4.73;74.66;98271.08;471133;1169;114432;-66
2021/04/07 01:11:16;;;;;;;14.43;9.13;;;;;;;-4.75;74.27;98277.93;472071;1169;114579;-69
2021/04/07 01:21:20;;;;;;;19.87;12.90;;;;;;;-4.86;74.75;98274.77;471260;1171;114068;-66
2021/04/07 01:31:25;;;;;;;16.00;10.10;;;;;;;-5.02;75.03;98287.92;471152;1169;114249;-66
2021/04/07 01:41:29;;;;;;;15.45;9.90;;;;;;;-5.08;75.92;98299.14;471170;1168;114384;-66
2021/04/07 01:51:33;;;;;;;23.50;11.30;;;;;;;-5.11;75.51;98299.20;471082;1168;114248;-66
2021/04/07 02:01:38;;;;;;;15.33;10.13;;;;;;;-5.03;76.24;98300.75;471282;1169;114478;-67
2021/04/07 02:11:42;;;;;;;14.37;8.97;;;;;;;-4.84;76.94;98304.59;471320;1169;114770;-66
2021/04/07 02:21:49;;;;;;;13.03;7.43;;;;;;;-4.81;76.61;98312.20;471425;1168;114160;-67
2021/04/07 02:31:52;;;;;;;;;;;;;;;-4.83;76.93;98311.40;471949;1170;114077;-67
2021/04/07 02:41:56;;;;;;;13.15;8.25;;;;;;;-4.47;77.64;98314.88;471372;1169;100160;-67
2021/04/07 02:52:00;;;;;;;14.97;9.53;;;;;;;-4.10;77.05;98324.24;471213;1169;114197;-66
2021/04/07 03:02:06;;;;;;;13.80;9.40;;;;;;;-3.85;77.16;98339.03;471270;1170;114229;-67
2021/04/07 03:12:11;;;;;;;14.07;7.43;;;;;;;-3.56;76.93;98345.98;471540;1169;114751;-67
2021/04/07 03:22:14;;;;;;;10.03;7.70;;;;;;;-3.27;77.05;98341.76;471605;1170;114146;-66
2021/04/07 03:32:18;;;;;;;12.30;7.60;;;;;;;-3.02;76.71;98353.08;472059;1168;114472;-68
2021/04/07 03:42:23;;;;;;;11.13;7.17;;;;;;;-2.74;76.43;98359.97;472654;1171;114034;-67
2021/04/07 03:52:26;;;;;;;10.60;6.15;;;;;;;-2.52;76.38;98367.04;471253;1171;114510;-66
2021/04/07 04:02:30;;;;;;;9.97;6.67;;;;;;;-2.40;76.10;98370.09;471831;1170;114182;-66
2021/04/07 04:12:34;;;;;;;12.60;8.55;;;;;;;-2.33;75.47;98380.17;472042;1168;114852;-67
2021/04/07 04:22:38;;;;;;;14.65;10.35;;;;;;;-2.27;75.75;98393.67;471697;1170;114034;-67
2021/04/07 04:32:43;;;;;;;20.50;15.00;;;;;;;-2.17;75.93;98404.55;471681;1169;114937;-66
2021/04/07 04:42:48;;;;;;;22.30;13.45;;;;;;;-2.09;75.82;98406.02;471653;1169;114160;-66
2021/04/07 04:52:51;;;;;;;21.80;16.70;;;;;;;-1.90;75.62;98419.16;471810;1169;114386;-66
2021/04/07 05:02:55;;;;;;;19.37;14.77;;;;;;;-1.76;75.40;98418.69;471418;1170;114880;-66
2021/04/07 05:12:59;;;;;;;23.95;13.60;;;;;;;-1.68;74.97;98434.73;471233;1169;114199;-66
2021/04/07 05:23:02;;;;;;;15.43;11.57;;;;;;;-1.59;74.94;98434.44;471434;1169;114587;-66
2021/04/07 05:33:08;;;;;;;27.67;13.20;;;;;;;-1.48;74.95;98454.67;471718;1171;114823;-66
2021/04/07 05:43:11;;;;;;;18.50;12.00;;;;;;;-1.28;74.79;98469.45;471682;1170;114155;-67
2021/04/07 05:53:15;;;;;;;15.93;11.70;;;;;;;-1.14;74.41;98473.31;472056;1170;114522;-64
2021/04/07 06:03:20;;;;;;;19.40;11.03;;;;;;;-0.60;74.35;98473.14;471211;1170;114481;-67
2021/04/07 06:13:24;;;;;;;14.60;11.30;;;;;;;-0.12;72.79;98481.70;471384;1170;114949;-67
2021/04/07 06:23:28;;;;;;;13.83;11.03;;;;;;;-0.03;72.29;98485.66;471720;1171;114250;-69
2021/04/07 06:33:33;;;;;;;20.80;10.90;;;;;;;0.48;72.18;98490.59;470933;1169;114686;-63
2021/04/07 06:43:37;;;;;;;12.50;8.90;;;;;;;1.05;70.73;98493.39;471232;1170;114382;-63
2021/04/07 06:53:46;;;;;;;12.27;9.43;;;;;;;1.13;70.15;98482.72;470702;1169;114196;-64
2021/04/07 07:03:52;;;;;;;9.60;5.00;;;;;;;1.23;69.28;98496.11;455878;1168;20002807;-64
2021/04/07 07:13:58;;;;;;;15.75;8.20;;;;;;;1.24;68.87;98503.78;472499;1168;115063;-63
2021/04/07 07:24:01;;;;;;;10.93;8.30;;;;;;;1.30;68.30;98507.03;474875;1168;113912;-65
2021/04/07 07:34:06;;;;;;;8.20;7.40;;;;;;;1.20;68.45;98519.49;470816;1169;114019;-65
2021/04/07 07:44:12;;;;;;;10.47;7.53;;;;;;;1.24;68.21;98532.23;471091;1170;114585;-64
2021/04/07 07:54:17;;;;;;;9.30;7.53;;;;;;;1.27;68.34;98536.44;470929;1168;114117;-65
2021/04/07 08:04:21;;;;;;;9.33;6.47;;;;;;;1.49;68.14;98545.86;471344;1168;114404;-65
2021/04/07 08:14:27;;;;;;;8.30;6.80;;;;;;;2.07;66.83;98560.52;472049;1168;114169;-65
2021/04/07 08:24:31;;;;;;;9.27;7.27;;;;;;;1.74;66.83;98568.92;470873;1170;113987;-64
2021/04/07 08:34:36;;;;;;;11.10;9.20;;;;;;;1.67;67.24;98576.13;470981;1170;113975;-65
2021/04/07 08:44:44;;;;;;;11.13;7.20;;;;;;;2.75;65.80;98572.08;471212;1168;114343;-66
2021/04/07 08:54:49;;;;;;;12.17;7.77;;;;;;;3.17;64.94;98572.63;471089;1170;114337;-66
2021/04/07 09:05:05;;;;;;;10.27;7.70;;;;;;;4.08;63.74;98568.03;471164;1170;114293;-65
2021/04/07 09:15:21;;;;;;;14.10;6.80;;;;;;;5.87;61.31;98554.35;471379;1170;114264;-65
2021/04/07 09:25:33;;;;;;;11.50;5.90;;;;;;;6.30;58.82;98550.88;470980;1169;114303;-65
2021/04/07 09:35:38;;;;;;;8.27;5.40;;;;;;;4.68;59.45;98566.50;470858;1168;115610;-65
2021/04/07 09:45:41;;;;;;;12.87;7.43;;;;;;;3.07;61.87;98594.75;470957;1170;114212;-65
2021/04/07 09:55:48;;;;;;;11.77;8.10;;;;;;;2.51;64.45;98603.44;462863;1170;10001888;-64
2021/04/07 10:05:52;;;;;;;13.80;8.50;;;;;;;4.55;63.81;98593.18;474655;1168;114511;-65
2021/04/07 10:15:55;;;;;;;11.03;7.13;;;;;;;4.67;63.08;98602.05;475460;1170;114623;-66
2021/04/07 10:26:03;;;;;;;9.63;6.33;;;;;;;4.86;62.69;98601.03;475205;1169;114027;-65
2021/04/07 10:36:07;;;;;;;;;;;;;;;5.15;62.87;98580.33;471594;1168;114099;-67
2021/04/07 10:46:11;;;;;;;6.50;5.23;;;;;;;5.65;59.54;98572.22;471441;1170;101114;-67
2021/04/07 10:56:17;;;;;;;9.87;6.63;;;;;;;5.73;60.35;98577.81;470938;1170;113894;-69
2021/04/07 11:06:25;;;;;;;7.85;5.30;;;;;;;5.76;59.48;98593.25;471708;1169;114203;-66
2021/04/07 11:16:33;;;;;;;6.40;4.40;;;;;;;2.48;63.16;98644.20;471654;1171;114284;-66
2021/04/07 11:26:37;;;;;;;3.90;2.27;;;;;;;0.71;67.01;98647.27;455675;1168;20002117;-67
2021/04/07 11:36:52;;;;;;;3.60;2.23;;;;;;;0.02;69.74;98661.01;470975;1169;115556;-63
2021/04/07 11:46:57;;;;;;;5.93;2.83;;;;;;;0.31;70.44;98667.69;470858;1170;114642;-63
2021/04/07 11:57:03;;;;;;;6.20;2.63;;;;;;;0.86;69.72;98643.25;471095;1170;113675;-63
2021/04/07 12:07:07;;;;;;;5.17;3.80;;;;;;;1.62;70.04;98639.34;471178;1168;115336;-68
2021/04/07 12:17:11;;;;;;;7.10;3.85;;;;;;;2.84;67.62;98660.71;470870;1169;113974;-70
2021/04/07 12:27:14;;;;;;;3.93;3.17;;;;;;;2.09;67.99;98654.55;471102;1170;114055;-69
2021/04/07 12:37:18;;;;;;;5.03;2.03;;;;;;;2.17;67.14;98641.25;471243;1170;114154;-66
2021/04/07 12:47:22;;;;;;;3.57;1.70;;;;;;;2.69;67.01;98638.94;471320;1168;114780;-66
2021/04/07 12:57:27;;;;;;;3.60;2.17;;;;;;;3.19;65.46;98632.23;471093;1169;113924;-70
2021/04/07 13:07:30;;;;;;;3.90;2.30;;;;;;;3.54;64.70;98633.98;470864;1170;113804;-68
2021/04/07 13:17:34;;;;;;;6.97;2.90;;;;;;;3.78;63.15;98622.33;473770;1169;114349;-68
2021/04/07 13:27:38;;;;;;;5.95;3.00;;;;;;;4.52;61.87;98616.76;469937;1169;10001403;-64
2021/04/07 13:37:49;;;;;;;5.53;2.67;;;;;;;5.13;59.59;98609.03;471046;1168;114226;-67
2021/04/07 13:47:54;;;;;;;4.73;1.70;;;;;;;4.71;58.08;98618.33;471385;1169;113626;-62
2021/04/07 13:57:58;;;;;;;6.90;2.60;;;;;;;5.03;57.93;98619.14;471175;1169;113818;-62
2021/04/07 14:08:03;;;;;;;2.47;1.67;;;;;;;5.55;55.40;98637.86;470941;1169;113754;-60
2021/04/07 14:18:11;;;;;;;3.85;1.70;;;;;;;5.66;54.32;98649.42;470919;1168;113995;-61
2021/04/07 14:28:15;;;;;;;2.93;1.47;;;;;;;5.43;52.58;98651.59;471282;1167;113797;-62
2021/04/07 14:38:21;;;;;;;3.33;2.57;;;;;;;4.91;54.09;98661.45;471151;1170;113738;-60
2021/04/07 14:48:27;;;;;;;6.90;2.80;;;;;;;5.09;55.95;98663.94;471339;1169;114808;-63
2021/04/07 14:58:30;;;;;;;3.30;1.83;;;;;;;5.08;54.28;98678.73;471463;1169;114071;-63
2021/04/07 15:08:34;;;;;;;5.70;1.35;;;;;;;4.85;53.83;98675.64;471170;1168;114099;-65
2021/04/07 15:18:38;;;;;;;2.37;2.10;;;;;;;5.08;54.68;98686.53;470916;1169;113810;-69
2021/04/07 15:28:43;;;;;;;3.20;1.53;;;;;;;5.07;54.09;98710.85;470816;1170;113966;-62
2021/04/07 15:38:49;;;;;;;4.70;3.17;;;;;;;4.27;56.48;98718.59;471183;1169;114355;-64
2021/04/07 15:48:52;;;;;;;7.07;3.50;;;;;;;3.32;58.10;98731.91;471462;1168;113994;-63
2021/04/07 15:58:56;;;;;;;4.13;3.00;;;;;;;2.66;60.32;98756.56;471339;1170;113701;-64
2021/04/07 16:09:00;;;;;;;4.13;2.95;;;;;;;2.16;62.54;98765.63;463060;1168;10001238;-65
2021/04/07 16:19:06;;;;;;;4.10;1.80;;;;;;;2.67;61.90;98760.83;470598;1169;114449;-62
2021/04/07 16:29:10;;;;;;;3.70;1.65;;;;;;;2.68;59.72;98772.88;471096;1170;114560;-63
2021/04/07 16:39:14;;;;;;;5.90;1.87;;;;;;;2.43;59.57;98783.51;470895;1170;113865;-63
2021/04/07 16:49:18;;;;;;;3.20;1.70;;;;;;;2.33;59.94;98781.31;471304;1169;115895;-64
2021/04/07 16:59:23;;;;;;;6.70;3.50;;;;;;;2.07;62.43;98787.59;471157;1168;114094;-63
2021/04/07 17:09:26;;;;;;;5.63;3.40;;;;;;;1.82;63.67;98798.97;471038;1169;114738;-64
2021/04/07 17:19:30;;;;;;;3.60;2.35;;;;;;;1.43;63.11;98808.27;471218;1171;113897;-63
2021/04/07 17:29:37;;;;;;;4.37;3.00;;;;;;;1.33;63.29;98825.90;471153;1169;114149;-61
2021/04/07 17:39:41;;;;;;;3.83;2.48;;;;;;;1.26;64.95;98842.54;455242;1170;20002807;-63
2021/04/07 17:49:44;;;;;;;6.43;2.87;;;;;;;0.96;67.03;98853.97;471105;1170;114531;-62
2021/04/07 17:59:48;;;;;;;6.20;3.57;;;;;;;0.74;68.44;98848.70;470794;1170;114166;-62
2021/04/07 18:09:52;;;;;;;7.17;3.93;;;;;;;0.61;68.59;98862.97;471073;1168;113813;-62
2021/04/07 18:19:56;;;;;;;10.63;4.80;;;;;;;0.20;68.70;98876.39;471244;1170;113656;-64
2021/04/07 18:30:00;;;;;;;8.53;4.90;;;;;;;-0.10;69.08;98884.25;471110;1169;114954;-67
2021/04/07 18:40:07;;;;;;;7.25;4.35;;;;;;;-0.40;68.87;98881.72;471636;1168;114514;-64
2021/04/07 18:50:13;;;;;;;6.10;3.88;;;;;;;-0.60;69.83;98891.75;471003;1169;114607;-63
2021/04/07 19:00:20;;;;;;;19.73;8.30;;;;;;;-0.69;69.97;98899.75;472331;1170;114841;-63
2021/04/07 19:10:26;;;;;;;6.00;4.00;;;;;;;-0.93;70.13;98894.41;471555;1170;114204;-64
2021/04/07 19:20:30;;;;;;;10.13;4.93;;;;;;;-1.18;70.51;98905.39;471064;1170;114366;-65
2021/04/07 19:30:34;;;;;;;14.43;7.30;;;;;;;-1.35;71.37;98904.98;471242;1168;114505;-69
2021/04/07 19:40:39;;;;;;;16.53;6.60;;;;;;;-1.51;71.59;98905.39;471703;1168;114317;-65
2021/04/07 19:50:45;;;;;;;;;;;;;;;-1.70;72.07;98899.86;469656;1170;6010677;-68
2021/04/07 20:00:49;;;;;;;48.05;19.10;;;;;;;-1.83;72.53;98899.31;467224;1170;3409181;-67
2021/04/07 20:10:54;;;;;;;17.25;8.95;;;;;;;-1.92;72.73;98892.67;470419;1171;115111;-70
2021/04/07 20:20:57;;;;;;;16.53;10.40;;;;;;;-1.96;72.83;98898.78;470775;1171;114391;-68
2021/04/07 20:31:01;;;;;;;28.83;14.65;;;;;;;-2.01;73.33;98906.61;470643;1173;114294;-62
2021/04/07 20:41:05;;;;;;;26.50;13.65;;;;;;;-2.06;73.92;98897.31;470114;1171;114576;-63
2021/04/07 20:51:09;;;;;;;21.70;12.45;;;;;;;-2.14;74.07;98905.17;469967;1170;114301;-62
2021/04/07 21:01:15;;;;;;;33.95;16.80;;;;;;;-2.19;74.35;98905.31;470140;1171;114368;-63
2021/04/07 21:11:19;;;;;;;43.95;19.30;;;;;;;-2.21;74.55;98904.48;470476;1171;114756;-62
2021/04/07 21:21:22;;;;;;;25.55;13.80;;;;;;;-2.18;74.86;98919.86;470767;1170;114633;-61
2021/04/07 21:31:27;;;;;;;37.40;16.20;;;;;;;-2.38;74.93;98916.88;472218;1170;114827;-61
2021/04/07 21:41:31;;;;;;;27.77;13.97;;;;;;;-2.30;75.52;98915.83;470868;1171;114867;-60
2021/04/07 21:51:53;;;;;;;45.10;18.00;;;;;;;-2.30;75.66;98927.86;469605;1171;20001940;-63
2021/04/07 22:01:57;;;;;;;29.70;13.80;;;;;;;-2.37;75.87;98924.55;470857;1171;115447;-63
2021/04/07 22:12:01;;;;;;;23.20;10.60;;;;;;;-2.35;76.10;98929.66;471149;1171;115031;-63
2021/04/07 22:22:04;;;;;;;29.70;13.50;;;;;;;-2.27;76.39;98926.03;471140;1170;114531;-63
2021/04/07 22:32:08;;;;;;;16.77;9.77;;;;;;;-2.19;76.63;98923.31;470953;1170;114409;-63
2021/04/07 22:42:13;;;;;;;15.95;8.35;;;;;;;-2.14;76.29;98923.19;471428;1171;114726;-63
2021/04/07 22:52:16;;;;;;;19.30;8.80;;;;;;;-2.19;76.18;98927.60;471228;1170;114426;-63
2021/04/07 23:02:20;;;;;;;18.50;9.75;;;;;;;-2.09;76.40;98917.94;470869;1171;114365;-63
2021/04/07 23:12:24;;;;;;;13.25;8.25;;;;;;;-2.21;75.90;98909.62;470871;1170;115321;-63
2021/04/07 23:22:28;;;;;;;18.77;8.90;;;;;;;-2.37;75.75;98908.28;462602;1170;10001897;-65
2021/04/07 23:32:31;;;;;;;12.40;8.60;;;;;;;-2.23;76.22;98910.55;472738;1171;114366;-66
2021/04/07 23:42:35;;;;;;;19.70;8.10;;;;;;;-2.29;75.60;98899.51;471501;1170;114891;-63
2021/04/07 23:52:40;;;;;;;14.80;9.20;;;;;;;-2.39;75.84;98900.59;471267;1171;114295;-63
